sensor_id;sensor_type;location;lat;lon;timestamp;pressure;altitude;pressure_sealevel;temperature;humidity
76853;BME280;65825;52.232;10.566;2023-07-29T00:02:18;99965.97;;;17.72;100.00
76853;BME280;65825;52.232;10.566;2023-07-29T00:04:44;99963.94;;;17.76;100.00
76853;BME280;65825;52.232;10.566;2023-07-29T00:07:09;99960.28;;;17.77;100.00
76853;BME280;65825;52.232;10.566;2023-07-29T00:09:34;99959.09;;;17.81;100.00
76853;BME280;65825;52.232;10.566;2023-07-29T00:12:00;99965.75;;;17.99;100.00
76853;BME280;65825;52.232;10.566;2023-07-29T00:14:25;99960.22;;;18.02;100.00
76853;BME280;65825;52.232;10.566;2023-07-29T00:16:50;99963.09;;;17.99;100.00
76853;BME280;65825;52.232;10.566;2023-07-29T00:19:15;99958.28;;;18.04;100.00
76853;BME280;65825;52.232;10.566;2023-07-29T00:21:41;99958.06;;;18.07;100.00
76853;BME280;65825;52.232;10.566;2023-07-29T00:24:06;99958.41;;;18.02;100.00
76853;BME280;65825;52.232;10.566;2023-07-29T00:26:31;99959.34;;;18.01;100.00
76853;BME280;65825;52.232;10.566;2023-07-29T00:28:57;99960.16;;;18.14;100.00
76853;BME280;65825;52.232;10.566;2023-07-29T00:31:22;99956.06;;;18.21;100.00
76853;BME280;65825;52.232;10.566;2023-07-29T00:33:48;99963.09;;;18.22;100.00
76853;BME280;65825;52.232;10.566;2023-07-29T00:36:13;99961.41;;;18.21;100.00
76853;BME280;65825;52.232;10.566;2023-07-29T00:38:38;99959.13;;;18.28;100.00
76853;BME280;65825;52.232;10.566;2023-07-29T00:41:04;99947.28;;;18.32;100.00
76853;BME280;65825;52.232;10.566;2023-07-29T00:43:30;99956.91;;;18.34;100.00
76853;BME280;65825;52.232;10.566;2023-07-29T00:45:56;99958.75;;;18.45;100.00
76853;BME280;65825;52.232;10.566;2023-07-29T00:48:22;99960.22;;;18.49;100.00
76853;BME280;65825;52.232;10.566;2023-07-29T00:50:48;99955.63;;;18.51;100.00
76853;BME280;65825;52.232;10.566;2023-07-29T00:53:14;99959.50;;;18.47;100.00
76853;BME280;65825;52.232;10.566;2023-07-29T00:55:40;99961.91;;;18.39;100.00
76853;BME280;65825;52.232;10.566;2023-07-29T00:58:07;99968.97;;;18.27;100.00
76853;BME280;65825;52.232;10.566;2023-07-29T01:00:32;99963.91;;;18.12;100.00
76853;BME280;65825;52.232;10.566;2023-07-29T01:02:57;99967.16;;;18.04;100.00
76853;BME280;65825;52.232;10.566;2023-07-29T01:05:30;99969.41;;;17.98;100.00
76853;BME280;65825;52.232;10.566;2023-07-29T01:08:16;99970.50;;;17.83;100.00
76853;BME280;65825;52.232;10.566;2023-07-29T01:10:54;99970.00;;;17.78;100.00
76853;BME280;65825;52.232;10.566;2023-07-29T01:13:35;99964.66;;;17.78;100.00
76853;BME280;65825;52.232;10.566;2023-07-29T01:16:09;99957.53;;;17.66;100.00
76853;BME280;65825;52.232;10.566;2023-07-29T01:18:38;99956.56;;;17.67;100.00
76853;BME280;65825;52.232;10.566;2023-07-29T01:21:07;99949.00;;;17.61;100.00
76853;BME280;65825;52.232;10.566;2023-07-29T01:23:36;99946.44;;;17.59;100.00
76853;BME280;65825;52.232;10.566;2023-07-29T01:26:02;99946.25;;;17.50;100.00
76853;BME280;65825;52.232;10.566;2023-07-29T01:28:28;99949.56;;;17.41;100.00
76853;BME280;65825;52.232;10.566;2023-07-29T01:31:03;99946.34;;;17.36;100.00
76853;BME280;65825;52.232;10.566;2023-07-29T01:33:38;99943.69;;;17.23;100.00
76853;BME280;65825;52.232;10.566;2023-07-29T01:36:07;99939.41;;;17.33;100.00
76853;BME280;65825;52.232;10.566;2023-07-29T01:38:36;99933.44;;;17.30;100.00
76853;BME280;65825;52.232;10.566;2023-07-29T01:41:04;99931.84;;;17.27;100.00
76853;BME280;65825;52.232;10.566;2023-07-29T01:43:31;99930.03;;;17.28;100.00
76853;BME280;65825;52.232;10.566;2023-07-29T01:45:57;99927.47;;;17.26;100.00
76853;BME280;65825;52.232;10.566;2023-07-29T01:48:23;99925.69;;;17.14;100.00
76853;BME280;65825;52.232;10.566;2023-07-29T01:50:48;99913.19;;;17.15;100.00
76853;BME280;65825;52.232;10.566;2023-07-29T01:53:13;99911.47;;;17.14;100.00
76853;BME280;65825;52.232;10.566;2023-07-29T01:55:39;99906.69;;;17.06;100.00
76853;BME280;65825;52.232;10.566;2023-07-29T01:58:04;99917.16;;;16.97;100.00
76853;BME280;65825;52.232;10.566;2023-07-29T02:00:30;99919.28;;;17.04;100.00
76853;BME280;65825;52.232;10.566;2023-07-29T02:02:55;99912.66;;;16.97;100.00
76853;BME280;65825;52.232;10.566;2023-07-29T02:05:20;99916.47;;;16.93;100.00
76853;BME280;65825;52.232;10.566;2023-07-29T02:07:46;99915.94;;;16.88;100.00
76853;BME280;65825;52.232;10.566;2023-07-29T02:10:11;99919.47;;;16.89;100.00
76853;BME280;65825;52.232;10.566;2023-07-29T02:12:36;99920.66;;;16.85;100.00
76853;BME280;65825;52.232;10.566;2023-07-29T02:15:02;99916.38;;;16.82;100.00
76853;BME280;65825;52.232;10.566;2023-07-29T02:17:27;99924.28;;;16.84;100.00
76853;BME280;65825;52.232;10.566;2023-07-29T02:19:53;99924.38;;;16.82;100.00
76853;BME280;65825;52.232;10.566;2023-07-29T02:22:18;99919.91;;;16.83;100.00
76853;BME280;65825;52.232;10.566;2023-07-29T02:24:44;99924.91;;;16.75;100.00
76853;BME280;65825;52.232;10.566;2023-07-29T02:27:10;99926.28;;;16.68;100.00
76853;BME280;65825;52.232;10.566;2023-07-29T02:29:35;99925.13;;;16.72;100.00
76853;BME280;65825;52.232;10.566;2023-07-29T02:32:02;99932.59;;;16.67;100.00
76853;BME280;65825;52.232;10.566;2023-07-29T02:34:27;99924.34;;;16.57;100.00
76853;BME280;65825;52.232;10.566;2023-07-29T02:36:53;99922.56;;;16.58;100.00
76853;BME280;65825;52.232;10.566;2023-07-29T02:39:18;99927.34;;;16.53;100.00
76853;BME280;65825;52.232;10.566;2023-07-29T02:41:43;99917.84;;;16.49;100.00
76853;BME280;65825;52.232;10.566;2023-07-29T02:44:09;99924.66;;;16.53;100.00
76853;BME280;65825;52.232;10.566;2023-07-29T02:46:34;99926.50;;;16.52;100.00
76853;BME280;65825;52.232;10.566;2023-07-29T02:49:01;99924.56;;;16.54;100.00
76853;BME280;65825;52.232;10.566;2023-07-29T02:51:27;99922.22;;;16.50;100.00
76853;BME280;65825;52.232;10.566;2023-07-29T02:53:52;99927.34;;;16.53;100.00
76853;BME280;65825;52.232;10.566;2023-07-29T02:56:17;99924.69;;;16.65;100.00
76853;BME280;65825;52.232;10.566;2023-07-29T02:58:44;99925.03;;;16.61;100.00
76853;BME280;65825;52.232;10.566;2023-07-29T03:01:10;99917.25;;;16.83;100.00
76853;BME280;65825;52.232;10.566;2023-07-29T03:03:35;99920.13;;;16.92;100.00
76853;BME280;65825;52.232;10.566;2023-07-29T03:06:06;99915.22;;;16.99;100.00
76853;BME280;65825;52.232;10.566;2023-07-29T03:08:31;99915.13;;;17.00;100.00
76853;BME280;65825;52.232;10.566;2023-07-29T03:10:57;99914.06;;;17.03;100.00
76853;BME280;65825;52.232;10.566;2023-07-29T03:13:22;99910.09;;;17.08;100.00
76853;BME280;65825;52.232;10.566;2023-07-29T03:15:48;99915.75;;;17.16;100.00
76853;BME280;65825;52.232;10.566;2023-07-29T03:18:14;99924.81;;;17.26;100.00
76853;BME280;65825;52.232;10.566;2023-07-29T03:20:39;99921.81;;;17.31;100.00
76853;BME280;65825;52.232;10.566;2023-07-29T03:23:05;99915.28;;;17.35;100.00
76853;BME280;65825;52.232;10.566;2023-07-29T03:25:31;99920.72;;;17.33;100.00
76853;BME280;65825;52.232;10.566;2023-07-29T03:27:56;99916.91;;;17.37;100.00
76853;BME280;65825;52.232;10.566;2023-07-29T03:30:21;99914.06;;;17.40;100.00
76853;BME280;65825;52.232;10.566;2023-07-29T03:32:48;99921.59;;;17.34;100.00
76853;BME280;65825;52.232;10.566;2023-07-29T03:35:13;99921.91;;;17.42;100.00
76853;BME280;65825;52.232;10.566;2023-07-29T03:37:39;99913.59;;;17.46;100.00
76853;BME280;65825;52.232;10.566;2023-07-29T03:40:05;99916.59;;;17.42;100.00
76853;BME280;65825;52.232;10.566;2023-07-29T03:42:31;99914.88;;;17.41;100.00
76853;BME280;65825;52.232;10.566;2023-07-29T03:44:56;99912.75;;;17.46;100.00
76853;BME280;65825;52.232;10.566;2023-07-29T03:47:21;99906.75;;;17.55;100.00
76853;BME280;65825;52.232;10.566;2023-07-29T03:49:47;99900.53;;;17.54;100.00
76853;BME280;65825;52.232;10.566;2023-07-29T03:52:12;99900.53;;;17.54;100.00
76853;BME280;65825;52.232;10.566;2023-07-29T03:54:37;99889.44;;;17.48;100.00
76853;BME280;65825;52.232;10.566;2023-07-29T03:57:02;99893.84;;;17.49;100.00
76853;BME280;65825;52.232;10.566;2023-07-29T03:59:28;99894.47;;;17.52;100.00
76853;BME280;65825;52.232;10.566;2023-07-29T04:01:53;99890.66;;;17.44;100.00
76853;BME280;65825;52.232;10.566;2023-07-29T04:04:18;99900.78;;;17.51;100.00
76853;BME280;65825;52.232;10.566;2023-07-29T04:06:44;99891.81;;;17.52;100.00
76853;BME280;65825;52.232;10.566;2023-07-29T04:09:09;99895.16;;;17.67;100.00
76853;BME280;65825;52.232;10.566;2023-07-29T04:11:34;99897.63;;;17.70;100.00
76853;BME280;65825;52.232;10.566;2023-07-29T04:13:59;99903.25;;;17.78;100.00
76853;BME280;65825;52.232;10.566;2023-07-29T04:16:25;99900.00;;;17.85;100.00
76853;BME280;65825;52.232;10.566;2023-07-29T04:18:50;99905.97;;;17.89;100.00
76853;BME280;65825;52.232;10.566;2023-07-29T04:21:15;99896.22;;;18.00;100.00
76853;BME280;65825;52.232;10.566;2023-07-29T04:23:41;99897.69;;;18.04;100.00
76853;BME280;65825;52.232;10.566;2023-07-29T04:26:06;99901.44;;;18.02;100.00
76853;BME280;65825;52.232;10.566;2023-07-29T04:28:31;99892.75;;;18.11;100.00
76853;BME280;65825;52.232;10.566;2023-07-29T04:30:56;99888.88;;;18.15;100.00
76853;BME280;65825;52.232;10.566;2023-07-29T04:33:22;99890.47;;;18.17;100.00
76853;BME280;65825;52.232;10.566;2023-07-29T04:35:47;99887.78;;;18.17;100.00
76853;BME280;65825;52.232;10.566;2023-07-29T04:38:12;99895.72;;;18.30;100.00
76853;BME280;65825;52.232;10.566;2023-07-29T04:40:38;99896.19;;;18.47;100.00
76853;BME280;65825;52.232;10.566;2023-07-29T04:43:03;99893.22;;;18.63;100.00
76853;BME280;65825;52.232;10.566;2023-07-29T04:45:29;99875.25;;;18.76;100.00
76853;BME280;65825;52.232;10.566;2023-07-29T04:47:54;99874.63;;;18.83;100.00
76853;BME280;65825;52.232;10.566;2023-07-29T04:50:20;99873.16;;;18.79;100.00
76853;BME280;65825;52.232;10.566;2023-07-29T04:52:45;99864.53;;;18.76;100.00
76853;BME280;65825;52.232;10.566;2023-07-29T04:55:10;99865.91;;;18.81;100.00
76853;BME280;65825;52.232;10.566;2023-07-29T04:57:35;99868.94;;;18.88;100.00
76853;BME280;65825;52.232;10.566;2023-07-29T05:00:02;99869.44;;;18.93;100.00
76853;BME280;65825;52.232;10.566;2023-07-29T05:02:28;99864.22;;;19.02;100.00
76853;BME280;65825;52.232;10.566;2023-07-29T05:04:53;99862.25;;;19.04;100.00
76853;BME280;65825;52.232;10.566;2023-07-29T05:07:18;99868.84;;;19.11;100.00
76853;BME280;65825;52.232;10.566;2023-07-29T05:09:43;99864.09;;;19.15;100.00
76853;BME280;65825;52.232;10.566;2023-07-29T05:12:09;99865.94;;;19.25;100.00
76853;BME280;65825;52.232;10.566;2023-07-29T05:14:34;99862.75;;;19.31;100.00
76853;BME280;65825;52.232;10.566;2023-07-29T05:16:59;99860.94;;;19.32;100.00
76853;BME280;65825;52.232;10.566;2023-07-29T05:19:25;99872.53;;;19.32;100.00
76853;BME280;65825;52.232;10.566;2023-07-29T05:21:51;99870.06;;;19.29;100.00
76853;BME280;65825;52.232;10.566;2023-07-29T05:24:16;99867.66;;;19.26;100.00
76853;BME280;65825;52.232;10.566;2023-07-29T05:26:41;99867.25;;;19.42;100.00
76853;BME280;65825;52.232;10.566;2023-07-29T05:29:07;99865.03;;;19.69;100.00
76853;BME280;65825;52.232;10.566;2023-07-29T05:31:32;99866.53;;;19.93;100.00
76853;BME280;65825;52.232;10.566;2023-07-29T05:33:57;99862.75;;;20.07;100.00
76853;BME280;65825;52.232;10.566;2023-07-29T05:36:23;99861.91;;;20.27;100.00
76853;BME280;65825;52.232;10.566;2023-07-29T05:38:48;99854.09;;;20.35;100.00
76853;BME280;65825;52.232;10.566;2023-07-29T05:41:13;99847.03;;;20.34;100.00
76853;BME280;65825;52.232;10.566;2023-07-29T05:43:38;99857.59;;;20.15;100.00
76853;BME280;65825;52.232;10.566;2023-07-29T05:46:04;99859.75;;;20.21;100.00
76853;BME280;65825;52.232;10.566;2023-07-29T05:48:29;99868.66;;;20.21;100.00
76853;BME280;65825;52.232;10.566;2023-07-29T05:50:54;99866.31;;;20.28;100.00
76853;BME280;65825;52.232;10.566;2023-07-29T05:53:19;99869.41;;;20.12;100.00
76853;BME280;65825;52.232;10.566;2023-07-29T05:55:45;99863.72;;;19.95;100.00
76853;BME280;65825;52.232;10.566;2023-07-29T05:58:10;99866.84;;;19.79;100.00
76853;BME280;65825;52.232;10.566;2023-07-29T06:00:36;99860.41;;;19.60;100.00
76853;BME280;65825;52.232;10.566;2023-07-29T06:03:01;99854.97;;;19.50;100.00
76853;BME280;65825;52.232;10.566;2023-07-29T06:05:26;99859.34;;;19.40;100.00
76853;BME280;65825;52.232;10.566;2023-07-29T06:07:51;99861.94;;;19.31;100.00
76853;BME280;65825;52.232;10.566;2023-07-29T06:10:17;99859.34;;;19.18;100.00
76853;BME280;65825;52.232;10.566;2023-07-29T06:12:46;99855.31;;;19.13;100.00
76853;BME280;65825;52.232;10.566;2023-07-29T06:15:11;99863.22;;;19.14;100.00
76853;BME280;65825;52.232;10.566;2023-07-29T06:17:37;99868.84;;;19.11;100.00
76853;BME280;65825;52.232;10.566;2023-07-29T06:20:03;99863.94;;;19.05;100.00
76853;BME280;65825;52.232;10.566;2023-07-29T06:22:28;99867.38;;;19.07;100.00
76853;BME280;65825;52.232;10.566;2023-07-29T06:24:53;99859.97;;;19.00;100.00
76853;BME280;65825;52.232;10.566;2023-07-29T06:27:19;99859.69;;;18.92;100.00
76853;BME280;65825;52.232;10.566;2023-07-29T06:29:44;99865.41;;;18.87;100.00
76853;BME280;65825;52.232;10.566;2023-07-29T06:32:09;99867.00;;;18.79;100.00
76853;BME280;65825;52.232;10.566;2023-07-29T06:34:35;99871.25;;;18.81;100.00
76853;BME280;65825;52.232;10.566;2023-07-29T06:37:00;99876.09;;;18.65;100.00
76853;BME280;65825;52.232;10.566;2023-07-29T06:39:25;99885.91;;;18.65;100.00
76853;BME280;65825;52.232;10.566;2023-07-29T06:41:50;99876.31;;;18.62;100.00
76853;BME280;65825;52.232;10.566;2023-07-29T06:44:16;99874.25;;;18.66;100.00
76853;BME280;65825;52.232;10.566;2023-07-29T06:46:41;99862.09;;;18.62;100.00
76853;BME280;65825;52.232;10.566;2023-07-29T06:49:07;99871.22;;;18.59;100.00
76853;BME280;65825;52.232;10.566;2023-07-29T06:51:32;99867.78;;;18.57;100.00
76853;BME280;65825;52.232;10.566;2023-07-29T06:54:00;99862.69;;;18.54;100.00
76853;BME280;65825;52.232;10.566;2023-07-29T06:56:25;99864.50;;;18.54;100.00
76853;BME280;65825;52.232;10.566;2023-07-29T06:58:50;99857.69;;;18.50;100.00
76853;BME280;65825;52.232;10.566;2023-07-29T07:01:15;99850.66;;;18.49;100.00
76853;BME280;65825;52.232;10.566;2023-07-29T07:03:41;99851.03;;;18.55;100.00
76853;BME280;65825;52.232;10.566;2023-07-29T07:06:07;99862.59;;;18.67;100.00
76853;BME280;65825;52.232;10.566;2023-07-29T07:08:33;99873.88;;;18.59;100.00
76853;BME280;65825;52.232;10.566;2023-07-29T07:10:58;99879.47;;;18.56;100.00
76853;BME280;65825;52.232;10.566;2023-07-29T07:13:23;99879.59;;;18.66;100.00
76853;BME280;65825;52.232;10.566;2023-07-29T07:15:49;99885.94;;;18.76;100.00
76853;BME280;65825;52.232;10.566;2023-07-29T07:18:14;99883.16;;;18.77;100.00
76853;BME280;65825;52.232;10.566;2023-07-29T07:20:40;99886.94;;;18.97;100.00
76853;BME280;65825;52.232;10.566;2023-07-29T07:23:05;99885.03;;;19.32;100.00
76853;BME280;65825;52.232;10.566;2023-07-29T07:25:33;99881.00;;;19.59;100.00
76853;BME280;65825;52.232;10.566;2023-07-29T07:27:58;99881.25;;;19.99;100.00
76853;BME280;65825;52.232;10.566;2023-07-29T07:30:24;99878.28;;;20.24;100.00
76853;BME280;65825;52.232;10.566;2023-07-29T07:32:49;99884.59;;;20.75;100.00
76853;BME280;65825;52.232;10.566;2023-07-29T07:35:15;99882.31;;;20.91;100.00
76853;BME280;65825;52.232;10.566;2023-07-29T07:37:41;99872.59;;;20.99;100.00
76853;BME280;65825;52.232;10.566;2023-07-29T07:40:06;99878.22;;;21.17;100.00
76853;BME280;65825;52.232;10.566;2023-07-29T07:42:32;99872.06;;;21.35;100.00
76853;BME280;65825;52.232;10.566;2023-07-29T07:44:57;99869.84;;;21.10;100.00
76853;BME280;65825;52.232;10.566;2023-07-29T07:47:23;99869.94;;;21.29;100.00
76853;BME280;65825;52.232;10.566;2023-07-29T07:49:48;99874.66;;;21.16;100.00
76853;BME280;65825;52.232;10.566;2023-07-29T07:52:15;99870.25;;;21.06;100.00
76853;BME280;65825;52.232;10.566;2023-07-29T07:54:40;99867.59;;;21.15;100.00
76853;BME280;65825;52.232;10.566;2023-07-29T07:57:05;99868.91;;;21.21;100.00
76853;BME280;65825;52.232;10.566;2023-07-29T07:59:31;99863.25;;;21.24;100.00
76853;BME280;65825;52.232;10.566;2023-07-29T08:01:56;99868.53;;;21.35;100.00
76853;BME280;65825;52.232;10.566;2023-07-29T08:04:21;99864.03;;;20.85;100.00
76853;BME280;65825;52.232;10.566;2023-07-29T08:06:46;99855.47;;;20.91;100.00
76853;BME280;65825;52.232;10.566;2023-07-29T08:09:12;99850.88;;;21.02;100.00
76853;BME280;65825;52.232;10.566;2023-07-29T08:11:37;99855.16;;;21.44;100.00
76853;BME280;65825;52.232;10.566;2023-07-29T08:14:02;99859.19;;;21.69;100.00
76853;BME280;65825;52.232;10.566;2023-07-29T08:16:27;99848.63;;;22.24;100.00
76853;BME280;65825;52.232;10.566;2023-07-29T08:18:53;99844.69;;;22.28;100.00
76853;BME280;65825;52.232;10.566;2023-07-29T08:21:18;99839.50;;;22.82;100.00
76853;BME280;65825;52.232;10.566;2023-07-29T08:23:43;99840.97;;;22.10;100.00
76853;BME280;65825;52.232;10.566;2023-07-29T08:26:08;99845.38;;;22.02;100.00
76853;BME280;65825;52.232;10.566;2023-07-29T08:28:36;99841.00;;;21.91;100.00
76853;BME280;65825;52.232;10.566;2023-07-29T08:31:02;99833.41;;;21.66;100.00
76853;BME280;65825;52.232;10.566;2023-07-29T08:33:28;99837.00;;;21.76;100.00
76853;BME280;65825;52.232;10.566;2023-07-29T08:35:54;99837.44;;;21.91;100.00
76853;BME280;65825;52.232;10.566;2023-07-29T08:38:19;99834.19;;;21.97;100.00
76853;BME280;65825;52.232;10.566;2023-07-29T08:40:50;99829.69;;;22.91;100.00
76853;BME280;65825;52.232;10.566;2023-07-29T08:43:19;99833.44;;;23.53;100.00
76853;BME280;65825;52.232;10.566;2023-07-29T08:45:46;99832.16;;;23.75;99.42
76853;BME280;65825;52.232;10.566;2023-07-29T08:48:11;99830.81;;;23.44;100.00
76853;BME280;65825;52.232;10.566;2023-07-29T08:50:37;99831.53;;;23.63;100.00
76853;BME280;65825;52.232;10.566;2023-07-29T08:53:06;99835.75;;;23.12;100.00
76853;BME280;65825;52.232;10.566;2023-07-29T08:55:32;99830.34;;;23.22;100.00
76853;BME280;65825;52.232;10.566;2023-07-29T08:57:58;99832.28;;;22.83;100.00
76853;BME280;65825;52.232;10.566;2023-07-29T09:00:25;99828.72;;;22.92;100.00
76853;BME280;65825;52.232;10.566;2023-07-29T09:02:50;99825.16;;;22.45;100.00
76853;BME280;65825;52.232;10.566;2023-07-29T09:05:16;99842.97;;;22.27;100.00
76853;BME280;65825;52.232;10.566;2023-07-29T09:07:42;99838.16;;;22.02;100.00
76853;BME280;65825;52.232;10.566;2023-07-29T09:10:09;99835.75;;;21.99;100.00
76853;BME280;65825;52.232;10.566;2023-07-29T09:12:38;99831.78;;;22.13;100.00
76853;BME280;65825;52.232;10.566;2023-07-29T09:15:03;99837.44;;;22.19;100.00
76853;BME280;65825;52.232;10.566;2023-07-29T09:17:35;99842.81;;;21.81;100.00
76853;BME280;65825;52.232;10.566;2023-07-29T09:20:00;99850.59;;;21.45;100.00
76853;BME280;65825;52.232;10.566;2023-07-29T09:22:26;99858.06;;;21.32;100.00
76853;BME280;65825;52.232;10.566;2023-07-29T09:24:52;99856.50;;;21.69;100.00
76853;BME280;65825;52.232;10.566;2023-07-29T09:27:26;99856.25;;;22.00;100.00
76853;BME280;65825;52.232;10.566;2023-07-29T09:29:53;99853.75;;;22.27;100.00
76853;BME280;65825;52.232;10.566;2023-07-29T09:32:20;99844.94;;;21.87;100.00
76853;BME280;65825;52.232;10.566;2023-07-29T09:34:46;99848.59;;;21.37;100.00
76853;BME280;65825;52.232;10.566;2023-07-29T09:37:18;99838.41;;;21.31;100.00
76853;BME280;65825;52.232;10.566;2023-07-29T09:39:46;99825.34;;;21.57;100.00
76853;BME280;65825;52.232;10.566;2023-07-29T09:42:17;99820.72;;;21.68;100.00
76853;BME280;65825;52.232;10.566;2023-07-29T09:44:42;99817.63;;;21.92;100.00
76853;BME280;65825;52.232;10.566;2023-07-29T09:47:08;99814.06;;;22.39;100.00
76853;BME280;65825;52.232;10.566;2023-07-29T09:49:35;99815.22;;;22.55;100.00
76853;BME280;65825;52.232;10.566;2023-07-29T09:52:02;99827.44;;;22.50;100.00
76853;BME280;65825;52.232;10.566;2023-07-29T09:54:30;99822.59;;;22.34;100.00
76853;BME280;65825;52.232;10.566;2023-07-29T09:56:56;99834.75;;;21.91;100.00
76853;BME280;65825;52.232;10.566;2023-07-29T09:59:23;99829.81;;;21.96;100.00
76853;BME280;65825;52.232;10.566;2023-07-29T10:01:49;99826.97;;;22.07;100.00
76853;BME280;65825;52.232;10.566;2023-07-29T10:04:15;99828.25;;;22.03;100.00
76853;BME280;65825;52.232;10.566;2023-07-29T10:06:42;99823.00;;;22.58;100.00
76853;BME280;65825;52.232;10.566;2023-07-29T10:09:08;99819.16;;;23.88;100.00
76853;BME280;65825;52.232;10.566;2023-07-29T10:11:35;99831.47;;;25.29;89.79
76853;BME280;65825;52.232;10.566;2023-07-29T10:14:01;99829.88;;;24.93;86.67
76853;BME280;65825;52.232;10.566;2023-07-29T10:16:26;99829.63;;;25.87;83.12
76853;BME280;65825;52.232;10.566;2023-07-29T10:18:53;99832.13;;;28.69;67.64
76853;BME280;65825;52.232;10.566;2023-07-29T10:21:21;99832.75;;;26.40;74.97
76853;BME280;65825;52.232;10.566;2023-07-29T10:23:49;99842.16;;;25.47;81.36
76853;BME280;65825;52.232;10.566;2023-07-29T10:26:20;99831.47;;;24.78;83.22
76853;BME280;65825;52.232;10.566;2023-07-29T10:28:47;99837.97;;;24.93;85.58
76853;BME280;65825;52.232;10.566;2023-07-29T10:31:15;99829.41;;;27.33;71.23
76853;BME280;65825;52.232;10.566;2023-07-29T10:33:41;99827.53;;;28.33;66.12
76853;BME280;65825;52.232;10.566;2023-07-29T10:36:08;99833.25;;;26.52;69.50
76853;BME280;65825;52.232;10.566;2023-07-29T10:38:34;99829.31;;;25.15;77.78
76853;BME280;65825;52.232;10.566;2023-07-29T10:40:59;99831.56;;;24.51;87.48
76853;BME280;65825;52.232;10.566;2023-07-29T10:43:32;99829.06;;;23.97;88.01
76853;BME280;65825;52.232;10.566;2023-07-29T10:46:14;99813.72;;;24.76;85.23
76853;BME280;65825;52.232;10.566;2023-07-29T10:48:54;99824.78;;;24.90;82.77
76853;BME280;65825;52.232;10.566;2023-07-29T10:51:27;99813.22;;;24.55;85.90
76853;BME280;65825;52.232;10.566;2023-07-29T10:53:59;99814.59;;;25.35;80.15
76853;BME280;65825;52.232;10.566;2023-07-29T10:56:32;99809.13;;;24.68;83.62
76853;BME280;65825;52.232;10.566;2023-07-29T11:02:06;99809.19;;;33.38;48.51
76853;BME280;65825;52.232;10.566;2023-07-29T11:04:31;99804.28;;;31.16;53.89
76853;BME280;65825;52.232;10.566;2023-07-29T11:12:34;99784.59;;;33.31;45.35
76853;BME280;65825;52.232;10.566;2023-07-29T11:18:02;99775.16;;;32.23;51.64
76853;BME280;65825;52.232;10.566;2023-07-29T11:20:32;99768.81;;;31.16;52.34
76853;BME280;65825;52.232;10.566;2023-07-29T11:23:01;99763.22;;;34.59;43.95
76853;BME280;65825;52.232;10.566;2023-07-29T11:25:28;99775.69;;;37.73;37.50
76853;BME280;65825;52.232;10.566;2023-07-29T11:27:56;99770.03;;;33.88;42.96
76853;BME280;65825;52.232;10.566;2023-07-29T11:30:22;99771.13;;;36.70;39.41
76853;BME280;65825;52.232;10.566;2023-07-29T11:32:48;99772.56;;;35.18;41.45
76853;BME280;65825;52.232;10.566;2023-07-29T11:35:18;99761.88;;;31.47;47.43
76853;BME280;65825;52.232;10.566;2023-07-29T11:37:45;99770.81;;;28.15;57.17
76853;BME280;65825;52.232;10.566;2023-07-29T11:40:16;99778.91;;;26.85;63.56
76853;BME280;65825;52.232;10.566;2023-07-29T11:42:41;99786.06;;;26.46;72.12
76853;BME280;65825;52.232;10.566;2023-07-29T11:45:07;99790.34;;;27.58;70.75
76853;BME280;65825;52.232;10.566;2023-07-29T11:47:33;99782.44;;;27.79;65.57
76853;BME280;65825;52.232;10.566;2023-07-29T11:50:13;99777.63;;;27.12;75.12
76853;BME280;65825;52.232;10.566;2023-07-29T11:52:43;99770.75;;;35.30;42.64
76853;BME280;65825;52.232;10.566;2023-07-29T11:55:08;99768.91;;;38.64;39.18
76853;BME280;65825;52.232;10.566;2023-07-29T11:57:36;99768.25;;;38.90;36.83
76853;BME280;65825;52.232;10.566;2023-07-29T12:00:03;99767.56;;;39.38;34.63
76853;BME280;65825;52.232;10.566;2023-07-29T12:02:30;99765.84;;;39.53;34.21
76853;BME280;65825;52.232;10.566;2023-07-29T12:04:56;99770.16;;;38.29;36.55
76853;BME280;65825;52.232;10.566;2023-07-29T12:07:22;99767.13;;;37.58;35.01
76853;BME280;65825;52.232;10.566;2023-07-29T12:09:49;99762.94;;;40.39;32.69
76853;BME280;65825;52.232;10.566;2023-07-29T12:12:15;99763.34;;;32.03;45.44
76853;BME280;65825;52.232;10.566;2023-07-29T12:14:44;99765.25;;;28.54;56.43
76853;BME280;65825;52.232;10.566;2023-07-29T12:17:10;99767.09;;;26.46;66.88
76853;BME280;65825;52.232;10.566;2023-07-29T12:19:37;99778.78;;;26.07;70.94
76853;BME280;65825;52.232;10.566;2023-07-29T12:22:04;99777.50;;;25.20;75.83
76853;BME280;65825;52.232;10.566;2023-07-29T12:24:31;99777.41;;;24.96;77.92
76853;BME280;65825;52.232;10.566;2023-07-29T12:26:57;99778.44;;;24.77;73.24
76853;BME280;65825;52.232;10.566;2023-07-29T12:29:22;99781.81;;;25.05;75.30
76853;BME280;65825;52.232;10.566;2023-07-29T12:31:48;99782.06;;;25.53;69.62
76853;BME280;65825;52.232;10.566;2023-07-29T12:34:21;99787.84;;;25.24;70.73
76853;BME280;65825;52.232;10.566;2023-07-29T12:36:48;99776.09;;;24.57;72.20
76853;BME280;65825;52.232;10.566;2023-07-29T12:39:21;99779.53;;;24.84;71.89
76853;BME280;65825;52.232;10.566;2023-07-29T12:41:48;99774.50;;;28.59;57.93
76853;BME280;65825;52.232;10.566;2023-07-29T12:44:14;99781.81;;;26.44;59.81
76853;BME280;65825;52.232;10.566;2023-07-29T12:46:39;99775.59;;;29.16;51.31
76853;BME280;65825;52.232;10.566;2023-07-29T12:49:05;99766.56;;;31.19;45.42
76853;BME280;65825;52.232;10.566;2023-07-29T12:51:30;99755.84;;;32.44;42.37